CheckWX is a tool to help pilots better visualize weather data.  It is not intended as a substitute for an official pre-flight weather briefing.

20:43:00 UTC

KLLQ METAR
Monticello Municipal / Ellis Field Airport
Monticello, Arkansas, USA
Current

50 mins ago

KLLQ 201953Z AUTO 32009KT 10SM CLR 22/01 A2999 RMK AO2 SLP153 T02170006
Observed
Apr-20 @ 19:53 UTC
Wind
  • 320° at 9 KTS
Visibility
10 SM
Flight Rules
VFR
Cloud Levels
  • Clear skies
Temperature
22°C / 72°F
Dewpoint
C / 34°F
Humidity
25%
Altimeter
29.99" Hg
Pressure
1015.62 hPa
Previous

2 hours ago

KLLQ 201853Z AUTO 26007KT 10SM CLR 21/01 A3000 RMK AO2 SLP158 T02110006
Observed
Apr-20 @ 18:53 UTC
Wind
  • 260° at 7 KTS
Visibility
10 SM
Flight Rules
VFR
Cloud Levels
  • Clear skies
Temperature
21°C / 70°F
Dewpoint
C / 34°F
Humidity
27%
Altimeter
30" Hg
Pressure
1015.92 hPa
Previous

3 hours ago

KLLQ 201753Z AUTO 29006G14KT 10SM CLR 20/01 A3002 RMK AO2 SLP163 T02000011 10200 20061 58004
Observed
Apr-20 @ 17:53 UTC
Wind
  • 290° at 6 KTS
  • Gusting to 14 KTS
Visibility
10 SM
Flight Rules
VFR
Cloud Levels
  • Clear skies
Temperature
20°C / 68°F
Dewpoint
C / 34°F
Humidity
28%
Altimeter
30.02" Hg
Pressure
1016.62 hPa